sensor_id;sensor_type;location;lat;lon;timestamp;temperature;humidity
65766;SHT31;52915;53.718;19.946;2023-09-19T00:02:59;20.20;72.58
65766;SHT31;52915;53.718;19.946;2023-09-19T00:08:04;20.16;72.63
65766;SHT31;52915;53.718;19.946;2023-09-19T00:13:09;20.09;73.00
65766;SHT31;52915;53.718;19.946;2023-09-19T00:18:19;20.03;73.43
65766;SHT31;52915;53.718;19.946;2023-09-19T00:23:31;20.00;73.61
65766;SHT31;52915;53.718;19.946;2023-09-19T00:28:36;19.94;73.94
65766;SHT31;52915;53.718;19.946;2023-09-19T00:33:41;19.90;74.34
65766;SHT31;52915;53.718;19.946;2023-09-19T00:38:45;19.86;74.56
65766;SHT31;52915;53.718;19.946;2023-09-19T00:43:50;19.81;74.82
65766;SHT31;52915;53.718;19.946;2023-09-19T00:48:54;19.76;74.71
65766;SHT31;52915;53.718;19.946;2023-09-19T00:54:00;19.68;74.88
65766;SHT31;52915;53.718;19.946;2023-09-19T00:59:06;19.60;75.26
65766;SHT31;52915;53.718;19.946;2023-09-19T01:04:10;19.53;75.31
65766;SHT31;52915;53.718;19.946;2023-09-19T01:09:15;19.44;75.50
65766;SHT31;52915;53.718;19.946;2023-09-19T01:25:38;19.24;75.74
65766;SHT31;52915;53.718;19.946;2023-09-19T01:30:47;19.23;75.58
65766;SHT31;52915;53.718;19.946;2023-09-19T01:36:01;19.18;75.68
65766;SHT31;52915;53.718;19.946;2023-09-19T01:41:11;19.07;76.07
65766;SHT31;52915;53.718;19.946;2023-09-19T01:46:33;18.97;76.36
65766;SHT31;52915;53.718;19.946;2023-09-19T01:52:00;18.88;76.57
65766;SHT31;52915;53.718;19.946;2023-09-19T01:57:40;18.82;76.74
65766;SHT31;52915;53.718;19.946;2023-09-19T02:02:58;18.73;76.93
65766;SHT31;52915;53.718;19.946;2023-09-19T02:08:04;18.61;77.26
65766;SHT31;52915;53.718;19.946;2023-09-19T02:13:09;18.49;77.78
65766;SHT31;52915;53.718;19.946;2023-09-19T02:18:14;18.41;78.18
65766;SHT31;52915;53.718;19.946;2023-09-19T02:23:19;18.39;78.20
65766;SHT31;52915;53.718;19.946;2023-09-19T02:28:24;18.38;78.10
65766;SHT31;52915;53.718;19.946;2023-09-19T02:33:28;18.35;78.15
65766;SHT31;52915;53.718;19.946;2023-09-19T02:38:36;18.30;78.11
65766;SHT31;52915;53.718;19.946;2023-09-19T02:43:40;18.25;78.28
65766;SHT31;52915;53.718;19.946;2023-09-19T02:48:46;18.18;78.38
65766;SHT31;52915;53.718;19.946;2023-09-19T02:53:51;18.12;78.54
65766;SHT31;52915;53.718;19.946;2023-09-19T02:58:58;18.08;78.42
65766;SHT31;52915;53.718;19.946;2023-09-19T03:04:04;18.03;78.49
65766;SHT31;52915;53.718;19.946;2023-09-19T03:09:15;17.99;78.59
65766;SHT31;52915;53.718;19.946;2023-09-19T03:14:20;17.94;78.60
65766;SHT31;52915;53.718;19.946;2023-09-19T03:19:24;17.86;78.82
65766;SHT31;52915;53.718;19.946;2023-09-19T03:24:30;17.86;78.82
65766;SHT31;52915;53.718;19.946;2023-09-19T03:29:36;17.83;79.03
65766;SHT31;52915;53.718;19.946;2023-09-19T03:34:40;17.83;79.18
65766;SHT31;52915;53.718;19.946;2023-09-19T03:39:47;17.84;79.25
65766;SHT31;52915;53.718;19.946;2023-09-19T03:44:51;17.87;79.14
65766;SHT31;52915;53.718;19.946;2023-09-19T03:49:56;17.90;79.14
65766;SHT31;52915;53.718;19.946;2023-09-19T03:55:00;17.90;79.19
65766;SHT31;52915;53.718;19.946;2023-09-19T04:00:06;17.83;79.60
65766;SHT31;52915;53.718;19.946;2023-09-19T04:05:16;17.76;79.96
65766;SHT31;52915;53.718;19.946;2023-09-19T04:10:20;17.72;80.22
65766;SHT31;52915;53.718;19.946;2023-09-19T04:15:25;17.69;80.46
65766;SHT31;52915;53.718;19.946;2023-09-19T04:20:30;17.69;80.57
65766;SHT31;52915;53.718;19.946;2023-09-19T04:25:35;17.71;80.54
65766;SHT31;52915;53.718;19.946;2023-09-19T04:30:41;17.67;80.81
65766;SHT31;52915;53.718;19.946;2023-09-19T04:35:45;17.63;80.96
65766;SHT31;52915;53.718;19.946;2023-09-19T04:40:57;17.64;80.93
65766;SHT31;52915;53.718;19.946;2023-09-19T04:46:04;17.71;80.67
65766;SHT31;52915;53.718;19.946;2023-09-19T04:51:10;17.81;80.34
65766;SHT31;52915;53.718;19.946;2023-09-19T04:56:14;17.88;80.31
65766;SHT31;52915;53.718;19.946;2023-09-19T05:01:18;17.94;80.26
65766;SHT31;52915;53.718;19.946;2023-09-19T05:06:22;17.97;80.46
65766;SHT31;52915;53.718;19.946;2023-09-19T05:11:27;18.03;80.32
65766;SHT31;52915;53.718;19.946;2023-09-19T05:16:33;18.14;80.22
65766;SHT31;52915;53.718;19.946;2023-09-19T05:21:38;18.23;80.32
65766;SHT31;52915;53.718;19.946;2023-09-19T05:26:42;18.34;80.15
65766;SHT31;52915;53.718;19.946;2023-09-19T05:31:47;18.44;79.98
65766;SHT31;52915;53.718;19.946;2023-09-19T05:36:51;18.55;79.65
65766;SHT31;52915;53.718;19.946;2023-09-19T05:41:59;18.64;79.33
65766;SHT31;52915;53.718;19.946;2023-09-19T05:47:07;18.70;79.10
65766;SHT31;52915;53.718;19.946;2023-09-19T05:52:12;18.72;79.07
65766;SHT31;52915;53.718;19.946;2023-09-19T05:57:16;18.67;79.82
65766;SHT31;52915;53.718;19.946;2023-09-19T06:02:21;18.52;80.86
65766;SHT31;52915;53.718;19.946;2023-09-19T06:07:25;18.30;82.18
65766;SHT31;52915;53.718;19.946;2023-09-19T06:12:31;18.21;82.55
65766;SHT31;52915;53.718;19.946;2023-09-19T06:17:41;18.14;82.90
65766;SHT31;52915;53.718;19.946;2023-09-19T06:22:53;18.09;83.26
65766;SHT31;52915;53.718;19.946;2023-09-19T06:27:58;18.13;83.35
65766;SHT31;52915;53.718;19.946;2023-09-19T06:33:03;18.14;83.50
65766;SHT31;52915;53.718;19.946;2023-09-19T06:38:08;18.16;83.61
65766;SHT31;52915;53.718;19.946;2023-09-19T06:43:12;18.16;83.87
65766;SHT31;52915;53.718;19.946;2023-09-19T06:48:17;18.06;84.29
65766;SHT31;52915;53.718;19.946;2023-09-19T06:53:22;17.96;84.99
65766;SHT31;52915;53.718;19.946;2023-09-19T06:58:27;17.91;85.60
65766;SHT31;52915;53.718;19.946;2023-09-19T07:03:31;17.89;85.85
65766;SHT31;52915;53.718;19.946;2023-09-19T07:08:37;17.89;86.14
65766;SHT31;52915;53.718;19.946;2023-09-19T07:13:42;17.95;86.25
65766;SHT31;52915;53.718;19.946;2023-09-19T07:18:47;18.04;86.18
65766;SHT31;52915;53.718;19.946;2023-09-19T07:23:51;18.06;86.24
65766;SHT31;52915;53.718;19.946;2023-09-19T07:28:56;18.14;86.03
65766;SHT31;52915;53.718;19.946;2023-09-19T07:34:01;18.22;85.84
65766;SHT31;52915;53.718;19.946;2023-09-19T07:39:09;18.33;85.67
65766;SHT31;52915;53.718;19.946;2023-09-19T07:44:26;18.49;85.51
65766;SHT31;52915;53.718;19.946;2023-09-19T07:49:30;18.60;85.58
65766;SHT31;52915;53.718;19.946;2023-09-19T07:54:35;18.71;85.60
65766;SHT31;52915;53.718;19.946;2023-09-19T07:59:39;18.84;85.37
65766;SHT31;52915;53.718;19.946;2023-09-19T08:04:46;18.94;85.09
65766;SHT31;52915;53.718;19.946;2023-09-19T08:09:50;19.00;85.01
65766;SHT31;52915;53.718;19.946;2023-09-19T08:14:55;19.18;84.85
65766;SHT31;52915;53.718;19.946;2023-09-19T08:20:00;19.43;84.23
65766;SHT31;52915;53.718;19.946;2023-09-19T08:25:09;19.57;83.90
65766;SHT31;52915;53.718;19.946;2023-09-19T08:30:14;19.59;83.61
65766;SHT31;52915;53.718;19.946;2023-09-19T08:35:21;19.55;83.49
65766;SHT31;52915;53.718;19.946;2023-09-19T08:40:27;19.54;83.46
65766;SHT31;52915;53.718;19.946;2023-09-19T08:45:33;19.55;83.52
65766;SHT31;52915;53.718;19.946;2023-09-19T08:56:10;19.55;83.60
65766;SHT31;52915;53.718;19.946;2023-09-19T09:01:16;19.55;83.64
65766;SHT31;52915;53.718;19.946;2023-09-19T09:06:29;19.58;83.59
65766;SHT31;52915;53.718;19.946;2023-09-19T09:11:33;19.57;83.50
65766;SHT31;52915;53.718;19.946;2023-09-19T09:16:38;19.57;83.42
65766;SHT31;52915;53.718;19.946;2023-09-19T09:21:42;19.57;83.51
65766;SHT31;52915;53.718;19.946;2023-09-19T09:26:47;19.58;83.38
65766;SHT31;52915;53.718;19.946;2023-09-19T09:31:53;19.63;83.23
65766;SHT31;52915;53.718;19.946;2023-09-19T09:36:58;19.73;83.01
65766;SHT31;52915;53.718;19.946;2023-09-19T09:42:02;19.87;82.57
65766;SHT31;52915;53.718;19.946;2023-09-19T09:47:10;20.14;82.09
65766;SHT31;52915;53.718;19.946;2023-09-19T09:52:43;20.40;81.33
65766;SHT31;52915;53.718;19.946;2023-09-19T09:57:58;20.37;80.94
65766;SHT31;52915;53.718;19.946;2023-09-19T10:03:31;20.23;81.14
65766;SHT31;52915;53.718;19.946;2023-09-19T10:14:25;20.13;81.36
65766;SHT31;52915;53.718;19.946;2023-09-19T10:24:50;20.27;80.86
65766;SHT31;52915;53.718;19.946;2023-09-19T10:30:05;20.22;80.85
65766;SHT31;52915;53.718;19.946;2023-09-19T10:35:12;20.16;80.90
65766;SHT31;52915;53.718;19.946;2023-09-19T10:40:18;20.07;80.68
65766;SHT31;52915;53.718;19.946;2023-09-19T10:45:24;19.99;80.54
65766;SHT31;52915;53.718;19.946;2023-09-19T10:50:30;19.96;80.49
65766;SHT31;52915;53.718;19.946;2023-09-19T10:55:52;19.87;80.58
65766;SHT31;52915;53.718;19.946;2023-09-19T11:01:01;19.87;80.65
65766;SHT31;52915;53.718;19.946;2023-09-19T11:06:16;19.85;80.69
65766;SHT31;52915;53.718;19.946;2023-09-19T11:22:17;19.66;81.43
65766;SHT31;52915;53.718;19.946;2023-09-19T11:27:22;19.61;81.60
65766;SHT31;52915;53.718;19.946;2023-09-19T11:43:49;19.96;81.43
65766;SHT31;52915;53.718;19.946;2023-09-19T11:49:17;20.67;79.44
65766;SHT31;52915;53.718;19.946;2023-09-19T11:54:27;21.17;78.08
65766;SHT31;52915;53.718;19.946;2023-09-19T11:59:38;21.41;77.24
65766;SHT31;52915;53.718;19.946;2023-09-19T12:04:43;21.65;76.71
65766;SHT31;52915;53.718;19.946;2023-09-19T12:10:04;22.00;75.44
65766;SHT31;52915;53.718;19.946;2023-09-19T12:15:12;22.54;73.40
65766;SHT31;52915;53.718;19.946;2023-09-19T12:20:16;22.94;71.65
65766;SHT31;52915;53.718;19.946;2023-09-19T12:25:20;22.87;70.00
65766;SHT31;52915;53.718;19.946;2023-09-19T12:30:28;22.83;70.69
65766;SHT31;52915;53.718;19.946;2023-09-19T12:35:36;22.76;70.31
65766;SHT31;52915;53.718;19.946;2023-09-19T12:40:42;23.05;69.57
65766;SHT31;52915;53.718;19.946;2023-09-19T12:45:47;23.18;68.76
65766;SHT31;52915;53.718;19.946;2023-09-19T12:51:02;23.04;68.79
65766;SHT31;52915;53.718;19.946;2023-09-19T12:56:12;22.84;69.50
65766;SHT31;52915;53.718;19.946;2023-09-19T13:01:19;22.60;70.00
65766;SHT31;52915;53.718;19.946;2023-09-19T13:06:35;22.49;70.30
65766;SHT31;52915;53.718;19.946;2023-09-19T13:11:47;22.45;70.59
65766;SHT31;52915;53.718;19.946;2023-09-19T13:17:03;22.37;70.76
65766;SHT31;52915;53.718;19.946;2023-09-19T13:27:58;22.82;70.57
65766;SHT31;52915;53.718;19.946;2023-09-19T13:33:07;22.95;69.88
65766;SHT31;52915;53.718;19.946;2023-09-19T13:38:14;22.82;69.53
65766;SHT31;52915;53.718;19.946;2023-09-19T13:43:19;22.57;69.82
65766;SHT31;52915;53.718;19.946;2023-09-19T13:48:25;22.46;69.82
65766;SHT31;52915;53.718;19.946;2023-09-19T13:53:30;22.45;69.95
65766;SHT31;52915;53.718;19.946;2023-09-19T13:58:34;22.52;69.96
65766;SHT31;52915;53.718;19.946;2023-09-19T14:03:39;22.72;69.75
65766;SHT31;52915;53.718;19.946;2023-09-19T14:08:44;23.31;68.96
65766;SHT31;52915;53.718;19.946;2023-09-19T14:13:54;23.92;64.97
65766;SHT31;52915;53.718;19.946;2023-09-19T14:19:00;24.18;63.49
65766;SHT31;52915;53.718;19.946;2023-09-19T14:24:04;24.14;62.26
65766;SHT31;52915;53.718;19.946;2023-09-19T14:29:12;24.39;61.42
65766;SHT31;52915;53.718;19.946;2023-09-19T14:34:17;24.21;60.46
65766;SHT31;52915;53.718;19.946;2023-09-19T14:39:23;23.88;60.76
65766;SHT31;52915;53.718;19.946;2023-09-19T14:44:28;25.06;59.12
65766;SHT31;52915;53.718;19.946;2023-09-19T14:49:35;25.10;58.64
65766;SHT31;52915;53.718;19.946;2023-09-19T14:54:43;26.19;55.97
65766;SHT31;52915;53.718;19.946;2023-09-19T14:59:47;27.38;52.02
65766;SHT31;52915;53.718;19.946;2023-09-19T15:04:52;27.60;49.72
65766;SHT31;52915;53.718;19.946;2023-09-19T15:09:56;26.18;52.33
65766;SHT31;52915;53.718;19.946;2023-09-19T15:15:01;25.56;53.99
65766;SHT31;52915;53.718;19.946;2023-09-19T15:20:06;24.62;56.00
65766;SHT31;52915;53.718;19.946;2023-09-19T15:25:12;23.89;57.96
65766;SHT31;52915;53.718;19.946;2023-09-19T15:30:16;23.72;57.49
65766;SHT31;52915;53.718;19.946;2023-09-19T15:35:20;23.38;58.00
65766;SHT31;52915;53.718;19.946;2023-09-19T15:40:26;22.85;59.35
65766;SHT31;52915;53.718;19.946;2023-09-19T15:45:30;22.68;59.77
65766;SHT31;52915;53.718;19.946;2023-09-19T15:50:34;22.38;60.44
65766;SHT31;52915;53.718;19.946;2023-09-19T15:55:38;22.33;60.91
65766;SHT31;52915;53.718;19.946;2023-09-19T16:00:43;22.17;61.03
65766;SHT31;52915;53.718;19.946;2023-09-19T16:05:48;21.89;61.40
65766;SHT31;52915;53.718;19.946;2023-09-19T16:10:53;21.61;62.01
65766;SHT31;52915;53.718;19.946;2023-09-19T16:15:57;21.35;62.11
65766;SHT31;52915;53.718;19.946;2023-09-19T16:21:03;21.08;62.43
65766;SHT31;52915;53.718;19.946;2023-09-19T16:26:08;20.83;62.51
65766;SHT31;52915;53.718;19.946;2023-09-19T16:31:12;20.59;62.53
65766;SHT31;52915;53.718;19.946;2023-09-19T16:36:18;20.27;63.01
65766;SHT31;52915;53.718;19.946;2023-09-19T16:41:23;19.99;63.61
65766;SHT31;52915;53.718;19.946;2023-09-19T16:46:28;19.75;64.08
65766;SHT31;52915;53.718;19.946;2023-09-19T16:51:33;19.50;64.58
65766;SHT31;52915;53.718;19.946;2023-09-19T16:56:37;19.31;65.06
65766;SHT31;52915;53.718;19.946;2023-09-19T17:01:43;19.11;65.80
65766;SHT31;52915;53.718;19.946;2023-09-19T17:06:48;18.96;66.72
65766;SHT31;52915;53.718;19.946;2023-09-19T17:11:52;18.77;67.68
65766;SHT31;52915;53.718;19.946;2023-09-19T17:16:58;18.61;68.08
65766;SHT31;52915;53.718;19.946;2023-09-19T17:22:04;18.51;68.39
65766;SHT31;52915;53.718;19.946;2023-09-19T17:27:08;18.37;69.01
65766;SHT31;52915;53.718;19.946;2023-09-19T17:32:14;18.24;69.54
65766;SHT31;52915;53.718;19.946;2023-09-19T17:37:23;18.10;69.89
65766;SHT31;52915;53.718;19.946;2023-09-19T17:42:26;18.02;69.90
65766;SHT31;52915;53.718;19.946;2023-09-19T17:47:31;17.96;70.06
65766;SHT31;52915;53.718;19.946;2023-09-19T17:52:43;17.88;70.25
65766;SHT31;52915;53.718;19.946;2023-09-19T17:57:48;17.75;70.48
65766;SHT31;52915;53.718;19.946;2023-09-19T18:02:56;17.72;70.42
65766;SHT31;52915;53.718;19.946;2023-09-19T18:08:00;17.66;70.42
65766;SHT31;52915;53.718;19.946;2023-09-19T18:13:05;17.58;70.50
65766;SHT31;52915;53.718;19.946;2023-09-19T18:18:13;17.48;70.50
65766;SHT31;52915;53.718;19.946;2023-09-19T18:23:20;17.34;70.64
65766;SHT31;52915;53.718;19.946;2023-09-19T18:28:24;17.19;70.80
65766;SHT31;52915;53.718;19.946;2023-09-19T18:33:28;17.09;71.03
65766;SHT31;52915;53.718;19.946;2023-09-19T18:38:39;17.00;71.24
65766;SHT31;52915;53.718;19.946;2023-09-19T18:43:45;16.88;71.54
65766;SHT31;52915;53.718;19.946;2023-09-19T18:48:52;16.76;71.85
65766;SHT31;52915;53.718;19.946;2023-09-19T18:53:58;16.67;72.15
65766;SHT31;52915;53.718;19.946;2023-09-19T18:59:17;16.55;72.44
65766;SHT31;52915;53.718;19.946;2023-09-19T19:04:26;16.44;72.82
65766;SHT31;52915;53.718;19.946;2023-09-19T19:09:30;16.36;73.00
65766;SHT31;52915;53.718;19.946;2023-09-19T19:14:34;16.27;73.19
65766;SHT31;52915;53.718;19.946;2023-09-19T19:19:39;16.19;73.39
65766;SHT31;52915;53.718;19.946;2023-09-19T19:24:45;16.13;73.68
65766;SHT31;52915;53.718;19.946;2023-09-19T19:29:50;16.06;73.97
65766;SHT31;52915;53.718;19.946;2023-09-19T19:34:55;15.97;74.25
65766;SHT31;52915;53.718;19.946;2023-09-19T19:39:59;15.89;74.42
65766;SHT31;52915;53.718;19.946;2023-09-19T19:45:03;15.82;74.48
65766;SHT31;52915;53.718;19.946;2023-09-19T19:50:09;15.73;74.62
65766;SHT31;52915;53.718;19.946;2023-09-19T19:55:13;15.68;74.72
65766;SHT31;52915;53.718;19.946;2023-09-19T20:00:20;15.61;74.87
65766;SHT31;52915;53.718;19.946;2023-09-19T20:05:25;15.51;75.10
65766;SHT31;52915;53.718;19.946;2023-09-19T20:10:30;15.42;75.32
65766;SHT31;52915;53.718;19.946;2023-09-19T20:15:34;15.30;75.63
65766;SHT31;52915;53.718;19.946;2023-09-19T20:20:42;15.15;75.96
65766;SHT31;52915;53.718;19.946;2023-09-19T20:25:46;14.99;76.29
65766;SHT31;52915;53.718;19.946;2023-09-19T20:30:51;14.83;76.57
65766;SHT31;52915;53.718;19.946;2023-09-19T20:35:56;14.67;76.88
65766;SHT31;52915;53.718;19.946;2023-09-19T20:41:05;14.62;77.08
65766;SHT31;52915;53.718;19.946;2023-09-19T20:46:10;14.59;77.29
65766;SHT31;52915;53.718;19.946;2023-09-19T20:51:15;14.49;77.54
65766;SHT31;52915;53.718;19.946;2023-09-19T20:56:23;14.36;77.81
65766;SHT31;52915;53.718;19.946;2023-09-19T21:01:28;14.23;78.04
65766;SHT31;52915;53.718;19.946;2023-09-19T21:06:34;14.11;78.32
65766;SHT31;52915;53.718;19.946;2023-09-19T21:11:39;14.10;78.46
65766;SHT31;52915;53.718;19.946;2023-09-19T21:16:43;14.15;78.24
65766;SHT31;52915;53.718;19.946;2023-09-19T21:21:47;14.19;78.06
65766;SHT31;52915;53.718;19.946;2023-09-19T21:27:08;14.19;77.88
65766;SHT31;52915;53.718;19.946;2023-09-19T21:32:18;14.21;77.68
65766;SHT31;52915;53.718;19.946;2023-09-19T21:37:22;14.18;77.63
65766;SHT31;52915;53.718;19.946;2023-09-19T21:42:27;14.19;77.63
65766;SHT31;52915;53.718;19.946;2023-09-19T21:47:32;14.21;77.54
65766;SHT31;52915;53.718;19.946;2023-09-19T21:52:37;14.18;77.52
65766;SHT31;52915;53.718;19.946;2023-09-19T21:57:41;14.13;77.50
65766;SHT31;52915;53.718;19.946;2023-09-19T22:02:45;14.05;77.57
65766;SHT31;52915;53.718;19.946;2023-09-19T22:07:50;13.92;77.79
65766;SHT31;52915;53.718;19.946;2023-09-19T22:12:55;13.80;78.04
65766;SHT31;52915;53.718;19.946;2023-09-19T22:18:03;13.73;78.18
65766;SHT31;52915;53.718;19.946;2023-09-19T22:23:08;13.61;78.50
65766;SHT31;52915;53.718;19.946;2023-09-19T22:28:15;13.49;78.76
65766;SHT31;52915;53.718;19.946;2023-09-19T22:33:19;13.41;78.89
65766;SHT31;52915;53.718;19.946;2023-09-19T22:38:23;13.29;78.97
65766;SHT31;52915;53.718;19.946;2023-09-19T22:43:27;13.18;79.15
65766;SHT31;52915;53.718;19.946;2023-09-19T22:48:35;13.09;79.32
65766;SHT31;52915;53.718;19.946;2023-09-19T22:53:41;13.02;79.50
65766;SHT31;52915;53.718;19.946;2023-09-19T22:58:46;12.95;79.56
65766;SHT31;52915;53.718;19.946;2023-09-19T23:03:50;12.88;79.64
65766;SHT31;52915;53.718;19.946;2023-09-19T23:09:07;12.79;79.85
65766;SHT31;52915;53.718;19.946;2023-09-19T23:14:11;12.73;79.98
65766;SHT31;52915;53.718;19.946;2023-09-19T23:19:16;12.64;80.19
65766;SHT31;52915;53.718;19.946;2023-09-19T23:24:26;12.59;80.38
65766;SHT31;52915;53.718;19.946;2023-09-19T23:29:36;12.58;80.39
65766;SHT31;52915;53.718;19.946;2023-09-19T23:34:42;12.59;80.32
65766;SHT31;52915;53.718;19.946;2023-09-19T23:39:47;12.55;80.31
65766;SHT31;52915;53.718;19.946;2023-09-19T23:44:51;12.49;80.40
65766;SHT31;52915;53.718;19.946;2023-09-19T23:49:58;12.43;80.42
65766;SHT31;52915;53.718;19.946;2023-09-19T23:55:02;12.34;80.43
